createdAt,value
2019-02-15T00:00:13.888Z,12.37
2019-02-15T00:00:45.086Z,12.93
2019-02-15T00:01:16.307Z,12.60
2019-02-15T00:01:47.543Z,12.30
2019-02-15T00:02:18.745Z,13.30
2019-02-15T00:02:49.966Z,12.98
2019-02-15T00:03:21.176Z,13.25
2019-02-15T00:03:52.403Z,13.98
2019-02-15T00:04:23.631Z,13.00
2019-02-15T00:04:54.861Z,13.68
2019-02-15T00:05:26.061Z,13.48
2019-02-15T00:05:57.280Z,13.45
2019-02-15T00:06:28.487Z,13.90
2019-02-15T00:06:59.711Z,13.05
2019-02-15T00:07:31.419Z,14.10
2019-02-15T00:08:02.708Z,13.62
2019-02-15T00:08:33.935Z,13.83
2019-02-15T00:09:05.146Z,15.32
2019-02-15T00:09:36.364Z,15.08
2019-02-15T00:10:07.553Z,14.43
2019-02-15T00:10:38.756Z,14.33
2019-02-15T00:11:09.954Z,14.55
2019-02-15T00:11:41.513Z,15.60
2019-02-15T00:12:12.738Z,14.23
2019-02-15T00:12:43.958Z,15.18
2019-02-15T00:13:15.215Z,15.10
2019-02-15T00:13:46.433Z,14.80
2019-02-15T00:14:17.649Z,14.90
2019-02-15T00:14:48.854Z,15.05
2019-02-15T00:15:20.071Z,15.43
2019-02-15T00:15:51.331Z,15.32
2019-02-15T00:16:22.621Z,13.43
2019-02-15T00:16:53.835Z,14.83
2019-02-15T00:17:25.049Z,14.78
2019-02-15T00:17:56.282Z,13.88
2019-02-15T00:18:27.486Z,15.25
2019-02-15T00:18:58.713Z,14.73
2019-02-15T00:19:29.907Z,16.42
2019-02-15T00:20:01.118Z,15.38
2019-02-15T00:20:32.343Z,14.50
2019-02-15T00:21:03.543Z,14.90
2019-02-15T00:21:34.788Z,15.65
2019-02-15T00:22:06.185Z,14.38
2019-02-15T00:22:37.397Z,14.18
2019-02-15T00:23:09.671Z,15.35
2019-02-15T00:23:40.887Z,14.18
2019-02-15T00:24:12.101Z,14.07
2019-02-15T00:24:43.319Z,14.30
2019-02-15T00:25:14.531Z,15.10
2019-02-15T00:25:45.803Z,14.28
2019-02-15T00:26:17.048Z,13.85
2019-02-15T00:26:48.265Z,14.90
2019-02-15T00:27:19.460Z,15.25
2019-02-15T00:27:50.671Z,15.23
2019-02-15T00:28:21.900Z,14.35
2019-02-15T00:28:53.107Z,13.62
2019-02-15T00:29:24.368Z,14.40
2019-02-15T00:29:55.585Z,13.98
2019-02-15T00:30:26.799Z,14.15
2019-02-15T00:30:58.008Z,14.85
2019-02-15T00:31:29.243Z,14.78
2019-02-15T00:32:00.468Z,14.25
2019-02-15T00:32:31.679Z,14.38
2019-02-15T00:33:02.712Z,14.98
2019-02-15T00:33:33.919Z,14.30
2019-02-15T00:34:05.173Z,14.20
2019-02-15T00:34:36.416Z,14.70
2019-02-15T00:35:07.643Z,14.98
2019-02-15T00:35:38.889Z,15.28
2019-02-15T00:36:10.104Z,13.80
2019-02-15T00:36:41.351Z,13.75
2019-02-15T00:37:13.006Z,14.15
2019-02-15T00:37:44.146Z,13.93
2019-02-15T00:38:15.351Z,14.00
2019-02-15T00:38:46.591Z,14.68
2019-02-15T00:39:17.805Z,12.80
2019-02-15T00:39:49.067Z,14.28
2019-02-15T00:40:20.264Z,14.58
2019-02-15T00:40:51.475Z,13.53
2019-02-15T00:41:22.746Z,13.65
2019-02-15T00:41:53.958Z,13.25
2019-02-15T00:42:25.176Z,14.83
2019-02-15T00:42:56.409Z,13.65
2019-02-15T00:43:27.619Z,12.78
2019-02-15T00:43:58.844Z,13.22
2019-02-15T00:44:30.048Z,12.10
2019-02-15T00:45:01.299Z,13.55
2019-02-15T00:45:32.532Z,12.93
2019-02-15T00:46:03.737Z,13.70
2019-02-15T00:46:34.958Z,13.58
2019-02-15T00:47:06.179Z,14.38
2019-02-15T00:47:37.391Z,14.07
2019-02-15T00:48:08.605Z,14.03
2019-02-15T00:48:39.813Z,14.58
2019-02-15T00:49:11.049Z,13.22
2019-02-15T00:49:42.268Z,13.45
2019-02-15T00:50:13.526Z,14.28
2019-02-15T00:50:44.744Z,14.43
2019-02-15T00:51:15.960Z,15.28
2019-02-15T00:51:47.159Z,15.30
2019-02-15T00:52:18.379Z,14.53
2019-02-15T00:52:49.639Z,14.53
2019-02-15T00:53:20.858Z,14.10
2019-02-15T00:53:52.057Z,13.83
2019-02-15T00:54:23.286Z,14.65
2019-02-15T00:54:54.525Z,14.15
2019-02-15T00:55:25.725Z,14.30
2019-02-15T00:55:56.933Z,14.33
2019-02-15T00:56:28.141Z,15.55
2019-02-15T00:56:59.342Z,14.47
2019-02-15T00:57:30.544Z,15.40
2019-02-15T00:58:01.820Z,15.25
2019-02-15T00:58:33.033Z,14.53
2019-02-15T00:59:04.250Z,14.00
2019-02-15T00:59:35.470Z,14.40
2019-02-15T01:00:06.667Z,14.05
2019-02-15T01:00:37.893Z,14.93
2019-02-15T01:01:09.106Z,13.95
2019-02-15T01:01:40.326Z,14.45
2019-02-15T01:02:11.561Z,13.93
2019-02-15T01:02:42.762Z,14.10
2019-02-15T01:03:14.046Z,14.18
2019-02-15T01:03:45.251Z,13.88
2019-02-15T01:04:16.469Z,13.30
2019-02-15T01:04:47.676Z,14.50
2019-02-15T01:05:18.914Z,14.23
2019-02-15T01:05:50.086Z,14.05
2019-02-15T01:06:21.292Z,13.25
2019-02-15T01:06:52.515Z,13.53
2019-02-15T01:07:23.754Z,14.05
2019-02-15T01:07:55.007Z,13.48
2019-02-15T01:08:26.217Z,12.78
2019-02-15T01:08:57.469Z,14.55
2019-02-15T01:09:28.644Z,15.18
2019-02-15T01:09:59.867Z,14.70
2019-02-15T01:10:31.084Z,16.27
2019-02-15T01:11:02.334Z,16.27
2019-02-15T01:11:33.570Z,16.93
2019-02-15T01:12:04.778Z,16.85
2019-02-15T01:12:36.053Z,17.05
2019-02-15T01:13:07.247Z,17.52
2019-02-15T01:13:38.375Z,18.52
2019-02-15T01:14:09.594Z,16.82
2019-02-15T01:14:40.798Z,17.42
2019-02-15T01:15:12.018Z,18.52
2019-02-15T01:15:43.279Z,19.32
2019-02-15T01:16:14.491Z,19.67
2019-02-15T01:16:45.859Z,18.95
2019-02-15T01:17:17.071Z,19.42
2019-02-15T01:17:48.303Z,19.07
2019-02-15T01:18:19.541Z,19.00
2019-02-15T01:18:50.798Z,18.67
2019-02-15T01:19:22.019Z,19.15
2019-02-15T01:19:53.231Z,19.23
2019-02-15T01:20:24.441Z,17.75
2019-02-15T01:20:55.649Z,19.30
2019-02-15T01:21:26.861Z,18.57
2019-02-15T01:21:58.074Z,19.85
2019-02-15T01:22:29.285Z,17.00
2019-02-15T01:23:00.497Z,18.05
2019-02-15T01:23:31.748Z,17.70
2019-02-15T01:24:02.971Z,16.20
2019-02-15T01:24:34.180Z,16.80
2019-02-15T01:25:05.427Z,16.57
2019-02-15T01:25:36.660Z,16.77
2019-02-15T01:26:07.868Z,17.87
2019-02-15T01:26:39.093Z,16.45
2019-02-15T01:27:10.329Z,15.78
2019-02-15T01:27:41.534Z,15.85
2019-02-15T01:28:12.768Z,15.48
2019-02-15T01:28:43.978Z,16.15
2019-02-15T01:29:15.413Z,16.65
2019-02-15T01:29:46.671Z,16.23
2019-02-15T01:30:17.913Z,15.90
2019-02-15T01:30:49.186Z,15.53
2019-02-15T01:31:20.392Z,15.65
2019-02-15T01:31:51.647Z,15.40
2019-02-15T01:32:22.896Z,15.05
2019-02-15T01:32:54.130Z,15.08
2019-02-15T01:33:25.318Z,15.00
2019-02-15T01:33:56.541Z,14.73
2019-02-15T01:34:27.752Z,14.18
2019-02-15T01:34:58.950Z,15.65
2019-02-15T01:35:30.184Z,14.45
2019-02-15T01:36:01.409Z,15.20
2019-02-15T01:36:32.613Z,13.85
2019-02-15T01:37:03.831Z,13.98
2019-02-15T01:37:35.042Z,14.70
2019-02-15T01:38:06.251Z,14.03
2019-02-15T01:38:37.509Z,14.55
2019-02-15T01:39:09.036Z,13.93
2019-02-15T01:39:40.252Z,14.38
2019-02-15T01:40:11.482Z,13.48
2019-02-15T01:40:42.696Z,14.68
2019-02-15T01:41:13.953Z,13.45
2019-02-15T01:41:45.162Z,13.28
2019-02-15T01:42:16.394Z,12.60
2019-02-15T01:42:47.612Z,13.18
2019-02-15T01:43:18.871Z,12.78
2019-02-15T01:43:50.164Z,13.53
2019-02-15T01:44:21.440Z,13.40
2019-02-15T01:44:52.645Z,14.03
2019-02-15T01:45:23.873Z,13.78
2019-02-15T01:45:55.076Z,13.80
2019-02-15T01:46:26.291Z,12.60
2019-02-15T01:46:57.599Z,13.50
2019-02-15T01:47:28.850Z,14.68
2019-02-15T01:48:00.035Z,13.18
2019-02-15T01:48:31.280Z,13.70
2019-02-15T01:49:02.491Z,13.75
2019-02-15T01:49:33.698Z,13.70
2019-02-15T01:50:04.917Z,13.72
2019-02-15T01:50:36.127Z,14.20
2019-02-15T01:51:07.392Z,14.10
2019-02-15T01:51:38.618Z,14.43
2019-02-15T01:52:09.936Z,14.03
2019-02-15T01:52:41.193Z,15.13
2019-02-15T01:53:12.413Z,14.35
2019-02-15T01:53:43.632Z,13.58
2019-02-15T01:54:14.866Z,14.68
2019-02-15T01:54:46.092Z,14.05
2019-02-15T01:55:17.305Z,14.73
2019-02-15T01:55:48.521Z,14.38
2019-02-15T01:56:19.805Z,14.43
2019-02-15T01:56:51.020Z,13.75
2019-02-15T01:57:22.231Z,15.10
2019-02-15T01:57:53.443Z,14.85
2019-02-15T01:58:24.709Z,13.78
2019-02-15T01:58:55.968Z,14.00
2019-02-15T01:59:27.182Z,13.83
2019-02-15T01:59:58.416Z,13.80
2019-02-15T02:00:29.624Z,13.98
2019-02-15T02:01:00.887Z,14.18
2019-02-15T02:01:32.079Z,14.00
2019-02-15T02:02:03.314Z,14.95
2019-02-15T02:02:34.576Z,13.75
2019-02-15T02:03:05.821Z,14.43
2019-02-15T02:03:37.129Z,14.20
2019-02-15T02:04:10.390Z,14.23
2019-02-15T02:04:41.597Z,14.78
2019-02-15T02:05:12.824Z,14.98
2019-02-15T02:05:44.019Z,15.25
2019-02-15T02:06:15.231Z,15.10
2019-02-15T02:06:46.442Z,14.47
2019-02-15T02:07:17.668Z,15.05
2019-02-15T02:07:48.905Z,15.10
2019-02-15T02:08:20.181Z,15.10
2019-02-15T02:08:51.397Z,14.87
2019-02-15T02:09:22.603Z,15.48
2019-02-15T02:09:53.817Z,15.50
2019-02-15T02:10:25.035Z,15.60
2019-02-15T02:10:56.240Z,14.83
2019-02-15T02:11:27.449Z,16.17
2019-02-15T02:11:58.669Z,15.40
2019-02-15T02:12:29.879Z,15.20
2019-02-15T02:13:01.090Z,15.23
2019-02-15T02:13:32.335Z,14.95
2019-02-15T02:14:03.598Z,14.70
2019-02-15T02:14:34.832Z,14.75
2019-02-15T02:15:06.087Z,15.32
2019-02-15T02:15:37.301Z,15.70
2019-02-15T02:16:08.520Z,15.85
2019-02-15T02:16:39.776Z,15.30
2019-02-15T02:17:10.967Z,15.85
2019-02-15T02:17:42.229Z,15.63
2019-02-15T02:18:13.409Z,15.50
2019-02-15T02:18:44.617Z,15.72
2019-02-15T02:19:15.828Z,14.98
2019-02-15T02:19:47.051Z,14.80
2019-02-15T02:20:18.316Z,15.45
2019-02-15T02:20:49.547Z,15.75
2019-02-15T02:21:20.803Z,15.80
2019-02-15T02:21:52.023Z,16.95
2019-02-15T02:22:23.231Z,16.12
2019-02-15T02:22:54.443Z,15.68
2019-02-15T02:23:25.651Z,16.90
2019-02-15T02:23:56.861Z,15.83
2019-02-15T02:24:28.081Z,16.52
2019-02-15T02:24:59.288Z,16.50
2019-02-15T02:25:30.500Z,16.12
2019-02-15T02:26:01.760Z,15.93
2019-02-15T02:26:32.971Z,15.93
2019-02-15T02:27:04.183Z,16.70
2019-02-15T02:27:35.392Z,16.20
2019-02-15T02:28:06.609Z,16.30
2019-02-15T02:28:37.830Z,16.48
2019-02-15T02:29:09.116Z,17.42
2019-02-15T02:29:40.324Z,16.27
2019-02-15T02:30:11.536Z,16.65
2019-02-15T02:30:42.753Z,17.95
2019-02-15T02:31:14.046Z,16.95
2019-02-15T02:31:45.274Z,16.85
2019-02-15T02:32:16.478Z,16.67
2019-02-15T02:32:47.713Z,16.32
2019-02-15T02:33:18.920Z,17.35
2019-02-15T02:33:50.129Z,16.05
2019-02-15T02:34:21.351Z,17.30
2019-02-15T02:34:52.567Z,17.42
2019-02-15T02:35:23.829Z,16.27
2019-02-15T02:35:55.036Z,15.32
2019-02-15T02:36:26.323Z,17.52
2019-02-15T02:36:57.538Z,17.05
2019-02-15T02:37:28.749Z,17.85
2019-02-15T02:37:59.970Z,16.93
2019-02-15T02:38:31.173Z,16.85
2019-02-15T02:39:02.394Z,16.30
2019-02-15T02:39:33.650Z,16.70
2019-02-15T02:40:04.863Z,16.12
2019-02-15T02:40:36.074Z,16.65
2019-02-15T02:41:07.283Z,16.45
2019-02-15T02:41:38.521Z,16.37
2019-02-15T02:42:09.760Z,16.62
2019-02-15T02:42:41.029Z,16.20
2019-02-15T02:43:12.330Z,15.72
2019-02-15T02:43:43.729Z,16.55
2019-02-15T02:44:14.960Z,16.60
2019-02-15T02:44:46.184Z,17.15
2019-02-15T02:45:17.393Z,16.40
2019-02-15T02:45:48.605Z,16.17
2019-02-15T02:46:19.869Z,16.30
2019-02-15T02:46:51.070Z,17.17
2019-02-15T02:47:22.279Z,16.42
2019-02-15T02:47:53.493Z,16.17
2019-02-15T02:48:24.724Z,15.90
2019-02-15T02:48:55.918Z,15.35
2019-02-15T02:49:27.134Z,15.72
2019-02-15T02:49:58.346Z,16.48
2019-02-15T02:50:29.553Z,15.70
2019-02-15T02:51:00.822Z,17.02
2019-02-15T02:51:32.107Z,17.00
2019-02-15T02:52:03.325Z,16.82
2019-02-15T02:52:34.536Z,15.88
2019-02-15T02:53:07.051Z,16.93
2019-02-15T02:53:38.408Z,17.27
2019-02-15T02:54:09.824Z,17.27
2019-02-15T02:54:41.174Z,16.42
2019-02-15T02:55:12.486Z,16.37
2019-02-15T02:55:43.717Z,17.10
2019-02-15T02:56:14.933Z,16.65
2019-02-15T02:56:46.138Z,16.42
2019-02-15T02:57:17.415Z,17.02
2019-02-15T02:57:48.620Z,17.27
2019-02-15T02:58:19.852Z,16.87
2019-02-15T02:58:51.072Z,17.02
2019-02-15T02:59:22.276Z,17.35
2019-02-15T02:59:53.500Z,17.15
2019-02-15T03:00:33.236Z,17.15
2019-02-15T03:00:57.663Z,17.10
2019-02-15T03:01:28.925Z,17.27
2019-02-15T03:02:00.283Z,17.10
2019-02-15T03:02:31.535Z,16.77
2019-02-15T03:03:02.803Z,17.40
2019-02-15T03:03:34.038Z,17.32
2019-02-15T03:04:05.248Z,16.82
2019-02-15T03:04:36.465Z,16.32
2019-02-15T03:05:07.677Z,17.40
2019-02-15T03:05:38.885Z,17.32
2019-02-15T03:06:10.108Z,18.05
2019-02-15T03:06:41.325Z,16.67
2019-02-15T03:07:12.824Z,16.07
2019-02-15T03:07:44.629Z,15.32
2019-02-15T03:08:15.924Z,17.37
2019-02-15T03:08:47.136Z,15.58
2019-02-15T03:09:18.343Z,17.05
2019-02-15T03:09:49.566Z,18.42
2019-02-15T03:10:20.758Z,18.40
2019-02-15T03:10:51.977Z,18.35
2019-02-15T03:11:23.235Z,19.07
2019-02-15T03:11:54.509Z,19.90
2019-02-15T03:12:25.900Z,20.55
2019-02-15T03:12:57.430Z,19.87
2019-02-15T03:13:28.693Z,19.82
2019-02-15T03:14:10.693Z,20.02
2019-02-15T03:14:35.120Z,18.67
2019-02-15T03:15:06.337Z,19.12
2019-02-15T03:15:37.531Z,21.97
2019-02-15T03:16:08.746Z,23.32
2019-02-15T03:16:39.965Z,25.57
2019-02-15T03:17:11.220Z,25.97
2019-02-15T03:17:42.500Z,26.10
2019-02-15T03:18:13.723Z,28.07
2019-02-15T03:18:44.956Z,25.55
2019-02-15T03:19:16.168Z,28.50
2019-02-15T03:19:47.388Z,27.70
2019-02-15T03:20:18.616Z,27.60
2019-02-15T03:20:49.817Z,27.95
2019-02-15T03:21:21.046Z,27.05
2019-02-15T03:21:52.317Z,25.90
2019-02-15T03:22:23.524Z,27.00
2019-02-15T03:22:54.742Z,24.02
2019-02-15T03:23:25.974Z,26.68
2019-02-15T03:23:57.172Z,25.37
2019-02-15T03:24:28.398Z,25.30
2019-02-15T03:24:59.608Z,25.17
2019-02-15T03:25:30.807Z,25.32
2019-02-15T03:26:02.023Z,25.55
2019-02-15T03:26:33.242Z,25.62
2019-02-15T03:27:04.477Z,26.40
2019-02-15T03:27:35.695Z,25.82
2019-02-15T03:28:06.895Z,25.95
2019-02-15T03:28:38.094Z,26.10
2019-02-15T03:29:09.308Z,25.50
2019-02-15T03:29:40.535Z,25.37
2019-02-15T03:30:11.790Z,27.07
2019-02-15T03:30:43.026Z,24.95
2019-02-15T03:31:14.290Z,25.30
2019-02-15T03:31:45.486Z,24.60
2019-02-15T03:32:16.702Z,23.75
2019-02-15T03:32:47.918Z,24.47
2019-02-15T03:33:22.101Z,24.40
2019-02-15T03:33:53.371Z,24.63
2019-02-15T03:34:24.581Z,22.82
2019-02-15T03:34:55.851Z,23.73
2019-02-15T03:35:27.068Z,24.50
2019-02-15T03:35:58.271Z,23.07
2019-02-15T03:36:29.486Z,24.12
2019-02-15T03:37:00.694Z,25.27
2019-02-15T03:37:31.953Z,24.72
2019-02-15T03:38:03.216Z,23.65
2019-02-15T03:38:34.417Z,24.30
2019-02-15T03:39:05.640Z,23.15
2019-02-15T03:39:36.860Z,24.35
2019-02-15T03:40:08.066Z,24.65
2019-02-15T03:40:39.323Z,25.15
2019-02-15T03:41:10.533Z,24.77
2019-02-15T03:41:41.750Z,24.47
2019-02-15T03:42:12.965Z,23.92
2019-02-15T03:42:44.204Z,24.50
2019-02-15T03:43:15.437Z,24.72
2019-02-15T03:43:46.640Z,25.32
2019-02-15T03:44:22.170Z,24.23
2019-02-15T03:44:50.787Z,25.45
2019-02-15T03:45:22.015Z,25.20
2019-02-15T03:45:53.202Z,24.80
2019-02-15T03:46:24.424Z,26.52
2019-02-15T03:46:55.656Z,25.97
2019-02-15T03:47:26.888Z,25.40
2019-02-15T03:47:58.083Z,24.82
2019-02-15T03:48:29.290Z,25.02
2019-02-15T03:49:00.507Z,26.25
2019-02-15T03:49:31.717Z,25.50
2019-02-15T03:50:04.844Z,24.60
2019-02-15T03:50:35.855Z,25.05
2019-02-15T03:51:07.052Z,25.20
2019-02-15T03:51:38.307Z,25.43
2019-02-15T03:52:09.523Z,26.52
2019-02-15T03:52:40.738Z,26.02
2019-02-15T03:53:11.940Z,26.68
2019-02-15T03:53:43.168Z,25.80
2019-02-15T03:54:14.410Z,25.82
2019-02-15T03:54:45.609Z,26.37
2019-02-15T03:55:16.817Z,25.30
2019-02-15T03:55:48.015Z,25.80
2019-02-15T03:56:19.257Z,25.75
2019-02-15T03:56:50.465Z,25.92
2019-02-15T03:57:21.668Z,26.00
2019-02-15T03:57:52.879Z,25.77
2019-02-15T03:58:24.105Z,24.95
2019-02-15T03:58:55.319Z,23.73
2019-02-15T03:59:26.540Z,25.12
2019-02-15T03:59:57.753Z,24.05
2019-02-15T04:00:28.979Z,24.45
2019-02-15T04:01:00.232Z,22.58
2019-02-15T04:01:31.564Z,24.43
2019-02-15T04:02:02.743Z,25.40
2019-02-15T04:02:33.944Z,25.77
2019-02-15T04:03:05.164Z,24.98
2019-02-15T04:03:36.384Z,25.50
2019-02-15T04:04:07.591Z,25.30
2019-02-15T04:04:38.792Z,26.37
2019-02-15T04:05:10.009Z,27.48
2019-02-15T04:05:41.205Z,26.80
2019-02-15T04:06:12.417Z,27.30
2019-02-15T04:06:43.699Z,27.98
2019-02-15T04:07:14.919Z,27.55
2019-02-15T04:07:46.114Z,27.48
2019-02-15T04:08:17.323Z,27.77
2019-02-15T04:08:48.522Z,26.97
2019-02-15T04:09:19.739Z,26.95
2019-02-15T04:09:51.658Z,27.98
2019-02-15T04:10:22.879Z,27.50
2019-02-15T04:10:54.091Z,26.45
2019-02-15T04:11:25.356Z,26.68
2019-02-15T04:11:56.563Z,27.17
2019-02-15T04:12:27.776Z,27.65
2019-02-15T04:12:59.004Z,27.02
2019-02-15T04:13:30.221Z,26.12
2019-02-15T04:14:01.457Z,27.13
2019-02-15T04:14:33.444Z,27.60
2019-02-15T04:15:04.820Z,26.90
2019-02-15T04:15:36.086Z,25.97
2019-02-15T04:16:07.321Z,28.07
2019-02-15T04:16:38.529Z,24.90
2019-02-15T04:17:09.728Z,28.23
2019-02-15T04:17:40.934Z,26.52
2019-02-15T04:18:12.143Z,25.97
2019-02-15T04:18:43.361Z,27.30
2019-02-15T04:19:14.629Z,26.82
2019-02-15T04:19:45.915Z,27.48
2019-02-15T04:20:17.190Z,27.27
2019-02-15T04:20:48.583Z,28.25
2019-02-15T04:21:19.769Z,27.15
2019-02-15T04:21:56.781Z,27.62
2019-02-15T04:22:33.319Z,28.02
2019-02-15T04:23:04.251Z,26.50
2019-02-15T04:23:35.506Z,27.65
2019-02-15T04:24:06.712Z,28.50
2019-02-15T04:24:37.928Z,28.65
2019-02-15T04:25:09.147Z,27.87
2019-02-15T04:25:40.357Z,25.90
2019-02-15T04:26:11.607Z,27.85
2019-02-15T04:26:42.819Z,28.12
2019-02-15T04:27:14.015Z,27.93
2019-02-15T04:27:45.224Z,27.48
2019-02-15T04:28:16.440Z,28.35
2019-02-15T04:28:47.678Z,28.30
2019-02-15T04:29:18.955Z,27.00
2019-02-15T04:29:50.171Z,26.95
2019-02-15T04:30:21.379Z,27.48
2019-02-15T04:30:52.583Z,28.98
2019-02-15T04:31:23.832Z,28.40
2019-02-15T04:31:55.000Z,27.60
2019-02-15T04:32:26.209Z,24.77
2019-02-15T04:32:57.855Z,23.32
2019-02-15T04:33:29.339Z,25.97
2019-02-15T04:34:00.606Z,26.05
2019-02-15T04:34:31.852Z,26.20
2019-02-15T04:35:03.167Z,25.57
2019-02-15T04:35:34.426Z,26.17
2019-02-15T04:36:05.638Z,27.27
2019-02-15T04:36:36.850Z,26.02
2019-02-15T04:37:08.049Z,24.02
2019-02-15T04:37:39.270Z,24.57
2019-02-15T04:38:10.469Z,25.20
2019-02-15T04:38:41.722Z,25.45
2019-02-15T04:39:12.949Z,25.25
2019-02-15T04:39:45.935Z,23.27
2019-02-15T04:40:17.173Z,24.63
2019-02-15T04:40:48.415Z,25.60
2019-02-15T04:41:19.699Z,27.80
2019-02-15T04:41:50.907Z,36.60
2019-02-15T04:42:22.165Z,48.17
2019-02-15T04:42:53.362Z,63.52
2019-02-15T04:43:24.562Z,79.27
2019-02-15T04:43:55.767Z,83.30
2019-02-15T04:44:26.983Z,78.97
2019-02-15T04:45:01.414Z,85.67
2019-02-15T04:45:32.675Z,125.02
2019-02-15T04:46:04.008Z,114.20
2019-02-15T04:46:35.218Z,118.75
2019-02-15T04:47:06.437Z,102.02
2019-02-15T04:47:37.643Z,64.35
2019-02-15T04:48:08.950Z,62.40
2019-02-15T04:48:40.265Z,57.53
2019-02-15T04:49:11.545Z,57.40
2019-02-15T04:49:42.806Z,56.70
2019-02-15T04:50:14.116Z,48.87
2019-02-15T04:50:45.437Z,38.60
2019-02-15T04:51:16.720Z,47.75
2019-02-15T04:51:47.983Z,50.30
2019-02-15T04:52:19.274Z,47.62
2019-02-15T04:52:50.604Z,57.25
2019-02-15T04:53:21.872Z,60.52
2019-02-15T04:53:53.257Z,62.13
2019-02-15T04:54:24.551Z,45.75
2019-02-15T04:54:55.837Z,57.83
2019-02-15T04:55:27.146Z,62.25
2019-02-15T04:55:58.535Z,46.15
2019-02-15T04:56:29.868Z,36.90
2019-02-15T04:57:01.206Z,36.80
2019-02-15T04:57:32.488Z,33.95
2019-02-15T04:58:03.833Z,28.42
2019-02-15T04:58:35.132Z,26.12
2019-02-15T04:59:06.421Z,22.40
2019-02-15T04:59:37.730Z,22.40
2019-02-15T05:00:09.019Z,21.00
2019-02-15T05:00:40.350Z,23.18
2019-02-15T05:01:11.643Z,21.37
2019-02-15T05:01:42.956Z,20.37
2019-02-15T05:02:14.254Z,19.52
2019-02-15T05:02:46.577Z,18.98
2019-02-15T05:03:19.501Z,20.12
2019-02-15T05:03:51.007Z,18.35
2019-02-15T05:04:22.271Z,20.02
2019-02-15T05:04:53.563Z,19.35
2019-02-15T05:05:24.903Z,19.92
2019-02-15T05:05:56.149Z,20.08
2019-02-15T05:06:27.479Z,19.35
2019-02-15T05:06:58.884Z,19.40
2019-02-15T05:07:30.217Z,19.02
2019-02-15T05:08:02.789Z,21.05
2019-02-15T05:08:34.257Z,20.90
2019-02-15T05:09:05.640Z,21.05
2019-02-15T05:09:36.919Z,19.55
2019-02-15T05:10:08.205Z,19.25
2019-02-15T05:10:39.484Z,20.23
2019-02-15T05:11:10.766Z,20.35
2019-02-15T05:11:42.065Z,20.27
2019-02-15T05:12:13.366Z,19.12
2019-02-15T05:12:44.664Z,20.43
2019-02-15T05:13:16.032Z,17.87
2019-02-15T05:13:47.330Z,18.37
2019-02-15T05:14:19.685Z,18.87
2019-02-15T05:14:53.409Z,19.65
2019-02-15T05:15:24.092Z,18.57
2019-02-15T05:15:55.355Z,18.50
2019-02-15T05:16:26.677Z,18.45
2019-02-15T05:16:57.967Z,18.40
2019-02-15T05:17:29.251Z,18.98
2019-02-15T05:18:00.685Z,19.45
2019-02-15T05:18:32.076Z,19.05
2019-02-15T05:19:03.468Z,17.75
2019-02-15T05:19:37.500Z,18.20
2019-02-15T05:20:08.895Z,18.87
2019-02-15T05:20:40.257Z,17.95
2019-02-15T05:21:12.974Z,17.67
2019-02-15T05:21:44.362Z,17.48
2019-02-15T05:22:15.713Z,17.65
2019-02-15T05:22:46.964Z,16.97
2019-02-15T05:23:18.298Z,16.97
2019-02-15T05:23:49.678Z,16.30
2019-02-15T05:24:20.986Z,16.45
2019-02-15T05:24:52.256Z,16.70
2019-02-15T05:25:23.575Z,15.50
2019-02-15T05:25:54.789Z,16.87
2019-02-15T05:26:26.107Z,15.83
2019-02-15T05:26:57.448Z,15.05
2019-02-15T05:27:30.096Z,15.38
2019-02-15T05:28:01.398Z,16.50
2019-02-15T05:28:32.687Z,16.40
2019-02-15T05:29:04.081Z,16.50
2019-02-15T05:29:38.517Z,15.60
2019-02-15T05:30:09.776Z,16.93
2019-02-15T05:30:41.124Z,16.45
2019-02-15T05:31:12.496Z,16.73
2019-02-15T05:31:43.792Z,16.10
2019-02-15T05:32:15.137Z,16.55
2019-02-15T05:32:46.377Z,16.48
2019-02-15T05:33:17.642Z,16.87
2019-02-15T05:33:48.963Z,16.20
2019-02-15T05:34:20.305Z,16.57
2019-02-15T05:34:51.610Z,16.27
2019-02-15T05:35:22.956Z,16.60
2019-02-15T05:35:54.202Z,16.73
2019-02-15T05:36:25.518Z,16.48
2019-02-15T05:36:56.843Z,16.57
2019-02-15T05:37:28.136Z,16.65
2019-02-15T05:37:59.454Z,16.37
2019-02-15T05:38:30.706Z,17.27
2019-02-15T05:39:02.041Z,17.23
2019-02-15T05:39:33.353Z,16.65
2019-02-15T05:40:04.693Z,16.90
2019-02-15T05:40:37.261Z,17.62
2019-02-15T05:41:08.562Z,16.82
2019-02-15T05:41:40.234Z,16.85
2019-02-15T05:42:11.543Z,18.12
2019-02-15T05:42:42.861Z,16.57
2019-02-15T05:43:14.133Z,18.45
2019-02-15T05:43:45.443Z,17.25
2019-02-15T05:44:16.729Z,17.15
2019-02-15T05:44:48.055Z,18.07
2019-02-15T05:45:19.363Z,17.40
2019-02-15T05:45:50.635Z,17.30
2019-02-15T05:46:21.945Z,17.62
2019-02-15T05:46:53.293Z,16.87
2019-02-15T05:47:24.691Z,17.87
2019-02-15T05:47:55.920Z,16.75
2019-02-15T05:48:27.230Z,17.37
2019-02-15T05:48:58.558Z,17.55
2019-02-15T05:49:29.925Z,17.70
2019-02-15T05:50:01.417Z,17.57
2019-02-15T05:50:32.770Z,17.80
2019-02-15T05:51:04.133Z,17.12
2019-02-15T05:51:35.445Z,18.42
2019-02-15T05:52:06.771Z,18.00
2019-02-15T05:52:38.100Z,18.95
2019-02-15T05:53:12.142Z,17.12
2019-02-15T05:53:43.502Z,17.82
2019-02-15T05:54:16.216Z,18.02
2019-02-15T05:54:47.618Z,18.70
2019-02-15T05:55:20.512Z,18.02
2019-02-15T05:55:51.917Z,17.87
2019-02-15T05:56:28.056Z,17.37
2019-02-15T05:56:58.911Z,17.17
2019-02-15T05:57:33.137Z,18.62
2019-02-15T05:58:07.382Z,17.37
2019-02-15T05:58:38.604Z,17.95
2019-02-15T05:59:09.998Z,18.05
2019-02-15T05:59:41.287Z,16.90
2019-02-15T06:00:12.554Z,18.27
2019-02-15T06:00:43.801Z,17.37
2019-02-15T06:01:15.021Z,17.67
2019-02-15T06:01:46.258Z,16.90
2019-02-15T06:02:17.755Z,17.30
2019-02-15T06:02:48.958Z,16.80
2019-02-15T06:03:20.282Z,16.95
2019-02-15T06:03:57.585Z,17.48
2019-02-15T06:04:24.462Z,17.57
2019-02-15T06:04:55.814Z,17.70
2019-02-15T06:05:27.109Z,17.90
2019-02-15T06:06:00.144Z,17.20
2019-02-15T06:06:32.472Z,16.17
2019-02-15T06:07:03.819Z,16.00
2019-02-15T06:07:35.082Z,15.98
2019-02-15T06:08:06.336Z,16.73
2019-02-15T06:08:37.573Z,16.45
2019-02-15T06:09:08.871Z,17.40
2019-02-15T06:09:40.278Z,17.65
2019-02-15T06:10:11.524Z,15.85
2019-02-15T06:10:42.794Z,15.98
2019-02-15T06:11:14.011Z,17.12
2019-02-15T06:11:45.215Z,16.85
2019-02-15T06:12:16.453Z,16.90
2019-02-15T06:12:47.736Z,16.55
2019-02-15T06:13:18.981Z,16.40
2019-02-15T06:13:50.150Z,19.85
2019-02-15T06:14:21.362Z,16.93
2019-02-15T06:14:52.754Z,16.67
2019-02-15T06:15:23.952Z,17.05
2019-02-15T06:15:55.202Z,15.78
2019-02-15T06:16:26.491Z,15.58
2019-02-15T06:16:57.702Z,15.93
2019-02-15T06:17:28.941Z,16.70
2019-02-15T06:18:00.186Z,17.48
2019-02-15T06:18:31.410Z,18.23
2019-02-15T06:19:02.677Z,18.42
2019-02-15T06:19:33.882Z,20.75
2019-02-15T06:20:05.120Z,18.87
2019-02-15T06:20:36.336Z,17.98
2019-02-15T06:21:07.570Z,18.52
2019-02-15T06:21:38.836Z,16.75
2019-02-15T06:22:10.645Z,17.20
2019-02-15T06:22:42.027Z,19.05
2019-02-15T06:23:13.236Z,17.55
2019-02-15T06:23:44.469Z,17.95
2019-02-15T06:24:15.680Z,18.42
2019-02-15T06:24:46.887Z,15.55
2019-02-15T06:25:18.112Z,16.95
2019-02-15T06:25:49.339Z,17.48
2019-02-15T06:26:20.607Z,17.90
2019-02-15T06:26:51.827Z,16.10
2019-02-15T06:27:23.034Z,15.55
2019-02-15T06:27:54.243Z,15.65
2019-02-15T06:28:25.447Z,16.62
2019-02-15T06:28:56.687Z,15.23
2019-02-15T06:29:27.928Z,16.65
2019-02-15T06:29:59.138Z,16.07
2019-02-15T06:30:30.400Z,16.27
2019-02-15T06:31:01.617Z,16.50
2019-02-15T06:31:32.835Z,16.20
2019-02-15T06:32:04.093Z,16.23
2019-02-15T06:32:35.279Z,16.32
2019-02-15T06:33:06.494Z,16.70
2019-02-15T06:33:37.759Z,15.70
2019-02-15T06:34:08.995Z,17.30
2019-02-15T06:34:40.198Z,17.30
2019-02-15T06:35:11.414Z,16.82
2019-02-15T06:35:42.696Z,16.75
2019-02-15T06:36:13.967Z,15.50
2019-02-15T06:36:45.168Z,17.02
2019-02-15T06:37:16.388Z,17.77
2019-02-15T06:37:47.661Z,17.25
2019-02-15T06:38:18.909Z,17.85
2019-02-15T06:38:50.128Z,17.40
2019-02-15T06:39:21.347Z,18.25
2019-02-15T06:39:52.579Z,21.10
2019-02-15T06:40:23.785Z,18.92
2019-02-15T06:40:54.990Z,16.70
2019-02-15T06:41:26.253Z,17.75
2019-02-15T06:41:57.499Z,15.80
2019-02-15T06:42:28.707Z,18.07
2019-02-15T06:42:59.981Z,16.15
2019-02-15T06:43:31.207Z,17.48